MCT weather

Muscat International Airport
Muscat, Masqat Governorate, Oman

Public forecast

Using degrees Celsius for public forecast. Weather courtesy of forecast.io.

METAR (pilot weather report)

Retrieved 2019/04/24 20:50 UTC (36 minutes ago):

OOMS 242050Z 31007KT CAVOK 29/15 Q1010 NOSIG

TAF (pilot weather forecast)

Retrieved 2019/04/24 18:00 UTC (3 hours ago):

TAF OOMS 241700Z 2418/2524 25005KT 8000 NSC BECMG 2506/2508 33014KT BECMG 2518/2520 22006KT